sensor_id;sensor_type;location;lat;lon;timestamp;P1;durP1;ratioP1;P2;durP2;ratioP2
2598;SDS011;1309;48.810;8.954;2023-01-29T00:00:29;8.03;;;4.83;;
2598;SDS011;1309;48.810;8.954;2023-01-29T00:03:02;9.17;;;4.60;;
2598;SDS011;1309;48.810;8.954;2023-01-29T00:05:36;7.40;;;4.60;;
2598;SDS011;1309;48.810;8.954;2023-01-29T00:08:04;6.63;;;4.50;;
2598;SDS011;1309;48.810;8.954;2023-01-29T00:10:33;10.03;;;4.43;;
2598;SDS011;1309;48.810;8.954;2023-01-29T00:13:05;8.83;;;4.77;;
2598;SDS011;1309;48.810;8.954;2023-01-29T00:15:35;10.03;;;5.83;;
2598;SDS011;1309;48.810;8.954;2023-01-29T00:18:11;8.50;;;5.17;;
2598;SDS011;1309;48.810;8.954;2023-01-29T00:20:41;6.13;;;4.20;;
2598;SDS011;1309;48.810;8.954;2023-01-29T00:23:09;10.50;;;5.70;;
2598;SDS011;1309;48.810;8.954;2023-01-29T00:25:37;7.00;;;4.37;;
2598;SDS011;1309;48.810;8.954;2023-01-29T00:28:08;8.97;;;4.97;;
2598;SDS011;1309;48.810;8.954;2023-01-29T00:30:37;8.30;;;4.37;;
2598;SDS011;1309;48.810;8.954;2023-01-29T00:33:06;8.37;;;5.10;;
2598;SDS011;1309;48.810;8.954;2023-01-29T00:35:34;9.60;;;5.23;;
2598;SDS011;1309;48.810;8.954;2023-01-29T00:38:05;8.60;;;4.43;;
2598;SDS011;1309;48.810;8.954;2023-01-29T00:40:36;8.80;;;4.97;;
2598;SDS011;1309;48.810;8.954;2023-01-29T00:43:21;9.23;;;4.93;;
2598;SDS011;1309;48.810;8.954;2023-01-29T00:46:10;6.40;;;4.17;;
2598;SDS011;1309;48.810;8.954;2023-01-29T00:48:38;10.67;;;5.53;;
2598;SDS011;1309;48.810;8.954;2023-01-29T00:51:09;10.50;;;5.57;;
2598;SDS011;1309;48.810;8.954;2023-01-29T00:53:37;6.97;;;4.07;;
2598;SDS011;1309;48.810;8.954;2023-01-29T00:56:11;6.93;;;4.30;;
2598;SDS011;1309;48.810;8.954;2023-01-29T00:58:39;7.03;;;3.93;;
2598;SDS011;1309;48.810;8.954;2023-01-29T01:01:09;4.17;;;3.77;;
2598;SDS011;1309;48.810;8.954;2023-01-29T01:03:37;8.63;;;4.83;;
2598;SDS011;1309;48.810;8.954;2023-01-29T01:06:08;13.13;;;6.50;;
2598;SDS011;1309;48.810;8.954;2023-01-29T01:08:39;9.40;;;5.13;;
2598;SDS011;1309;48.810;8.954;2023-01-29T01:11:27;11.60;;;5.80;;
2598;SDS011;1309;48.810;8.954;2023-01-29T01:13:55;9.00;;;4.93;;
2598;SDS011;1309;48.810;8.954;2023-01-29T01:16:29;7.20;;;4.47;;
2598;SDS011;1309;48.810;8.954;2023-01-29T01:18:59;8.00;;;4.33;;
2598;SDS011;1309;48.810;8.954;2023-01-29T01:21:32;7.50;;;4.30;;
2598;SDS011;1309;48.810;8.954;2023-01-29T01:24:04;9.73;;;5.50;;
2598;SDS011;1309;48.810;8.954;2023-01-29T01:26:32;9.10;;;4.97;;
2598;SDS011;1309;48.810;8.954;2023-01-29T01:29:15;7.07;;;4.20;;
2598;SDS011;1309;48.810;8.954;2023-01-29T01:31:45;6.73;;;4.33;;
2598;SDS011;1309;48.810;8.954;2023-01-29T01:34:13;8.37;;;5.00;;
2598;SDS011;1309;48.810;8.954;2023-01-29T01:36:43;10.23;;;6.00;;
2598;SDS011;1309;48.810;8.954;2023-01-29T01:39:12;5.63;;;4.00;;
2598;SDS011;1309;48.810;8.954;2023-01-29T01:41:41;6.93;;;4.47;;
2598;SDS011;1309;48.810;8.954;2023-01-29T01:47:13;8.03;;;4.30;;
2598;SDS011;1309;48.810;8.954;2023-01-29T01:49:42;5.97;;;3.77;;
2598;SDS011;1309;48.810;8.954;2023-01-29T01:52:12;6.00;;;4.60;;
2598;SDS011;1309;48.810;8.954;2023-01-29T01:54:44;11.10;;;4.53;;
2598;SDS011;1309;48.810;8.954;2023-01-29T01:57:13;13.97;;;5.27;;
2598;SDS011;1309;48.810;8.954;2023-01-29T01:59:45;9.17;;;4.80;;
2598;SDS011;1309;48.810;8.954;2023-01-29T02:02:17;5.83;;;4.20;;
2598;SDS011;1309;48.810;8.954;2023-01-29T02:05:09;11.10;;;5.83;;
2598;SDS011;1309;48.810;8.954;2023-01-29T02:08:02;4.20;;;2.70;;
2598;SDS011;1309;48.810;8.954;2023-01-29T02:10:50;7.97;;;3.80;;
2598;SDS011;1309;48.810;8.954;2023-01-29T02:13:18;6.07;;;4.20;;
2598;SDS011;1309;48.810;8.954;2023-01-29T02:15:51;10.07;;;4.37;;
2598;SDS011;1309;48.810;8.954;2023-01-29T02:18:22;8.47;;;3.30;;
2598;SDS011;1309;48.810;8.954;2023-01-29T02:20:56;6.87;;;3.63;;
2598;SDS011;1309;48.810;8.954;2023-01-29T02:23:44;10.47;;;4.60;;
2598;SDS011;1309;48.810;8.954;2023-01-29T02:26:38;7.87;;;4.43;;
2598;SDS011;1309;48.810;8.954;2023-01-29T02:29:16;6.17;;;4.63;;
2598;SDS011;1309;48.810;8.954;2023-01-29T02:32:01;7.43;;;3.70;;
2598;SDS011;1309;48.810;8.954;2023-01-29T02:34:42;7.50;;;3.53;;
2598;SDS011;1309;48.810;8.954;2023-01-29T02:37:35;5.47;;;3.40;;
2598;SDS011;1309;48.810;8.954;2023-01-29T02:40:11;5.90;;;3.60;;
2598;SDS011;1309;48.810;8.954;2023-01-29T02:42:44;9.87;;;5.17;;
2598;SDS011;1309;48.810;8.954;2023-01-29T02:45:21;6.37;;;4.30;;
2598;SDS011;1309;48.810;8.954;2023-01-29T02:48:02;6.50;;;3.90;;
2598;SDS011;1309;48.810;8.954;2023-01-29T02:50:36;8.17;;;4.43;;
2598;SDS011;1309;48.810;8.954;2023-01-29T02:53:09;9.57;;;4.63;;
2598;SDS011;1309;48.810;8.954;2023-01-29T02:55:51;7.10;;;3.90;;
2598;SDS011;1309;48.810;8.954;2023-01-29T02:58:25;13.33;;;7.50;;
2598;SDS011;1309;48.810;8.954;2023-01-29T03:01:00;12.50;;;5.77;;
2598;SDS011;1309;48.810;8.954;2023-01-29T03:03:37;9.77;;;5.60;;
2598;SDS011;1309;48.810;8.954;2023-01-29T03:06:10;9.00;;;4.57;;
2598;SDS011;1309;48.810;8.954;2023-01-29T03:08:51;7.23;;;4.40;;
2598;SDS011;1309;48.810;8.954;2023-01-29T03:11:28;7.33;;;4.20;;
2598;SDS011;1309;48.810;8.954;2023-01-29T03:14:02;9.73;;;4.20;;
2598;SDS011;1309;48.810;8.954;2023-01-29T03:16:34;7.13;;;4.97;;
2598;SDS011;1309;48.810;8.954;2023-01-29T03:19:06;8.97;;;4.57;;
2598;SDS011;1309;48.810;8.954;2023-01-29T03:21:42;7.47;;;4.47;;
2598;SDS011;1309;48.810;8.954;2023-01-29T03:24:37;8.30;;;4.33;;
2598;SDS011;1309;48.810;8.954;2023-01-29T03:27:26;11.77;;;5.13;;
2598;SDS011;1309;48.810;8.954;2023-01-29T03:30:24;5.53;;;3.90;;
2598;SDS011;1309;48.810;8.954;2023-01-29T03:33:13;8.13;;;6.20;;
2598;SDS011;1309;48.810;8.954;2023-01-29T03:35:44;8.07;;;4.17;;
2598;SDS011;1309;48.810;8.954;2023-01-29T03:38:13;5.10;;;3.93;;
2598;SDS011;1309;48.810;8.954;2023-01-29T03:40:43;5.97;;;3.93;;
2598;SDS011;1309;48.810;8.954;2023-01-29T03:43:21;6.23;;;4.50;;
2598;SDS011;1309;48.810;8.954;2023-01-29T03:45:59;9.30;;;5.37;;
2598;SDS011;1309;48.810;8.954;2023-01-29T03:48:35;5.23;;;4.10;;
2598;SDS011;1309;48.810;8.954;2023-01-29T03:51:10;8.10;;;4.63;;
2598;SDS011;1309;48.810;8.954;2023-01-29T03:53:43;8.10;;;4.83;;
2598;SDS011;1309;48.810;8.954;2023-01-29T03:56:20;13.83;;;5.63;;
2598;SDS011;1309;48.810;8.954;2023-01-29T03:58:56;8.17;;;4.27;;
2598;SDS011;1309;48.810;8.954;2023-01-29T04:01:27;7.00;;;3.93;;
2598;SDS011;1309;48.810;8.954;2023-01-29T04:04:02;8.07;;;4.53;;
2598;SDS011;1309;48.810;8.954;2023-01-29T04:06:34;8.30;;;5.80;;
2598;SDS011;1309;48.810;8.954;2023-01-29T04:09:04;7.77;;;4.50;;
2598;SDS011;1309;48.810;8.954;2023-01-29T04:11:37;6.10;;;4.23;;
2598;SDS011;1309;48.810;8.954;2023-01-29T04:14:11;7.33;;;5.10;;
2598;SDS011;1309;48.810;8.954;2023-01-29T04:16:43;7.83;;;4.30;;
2598;SDS011;1309;48.810;8.954;2023-01-29T04:19:16;7.53;;;4.40;;
2598;SDS011;1309;48.810;8.954;2023-01-29T04:21:49;7.63;;;4.60;;
2598;SDS011;1309;48.810;8.954;2023-01-29T04:24:18;8.10;;;5.20;;
2598;SDS011;1309;48.810;8.954;2023-01-29T04:26:50;4.93;;;3.90;;
2598;SDS011;1309;48.810;8.954;2023-01-29T04:29:29;8.83;;;5.20;;
2598;SDS011;1309;48.810;8.954;2023-01-29T04:32:14;8.83;;;3.77;;
2598;SDS011;1309;48.810;8.954;2023-01-29T04:34:54;7.20;;;4.87;;
2598;SDS011;1309;48.810;8.954;2023-01-29T04:37:30;10.43;;;4.70;;
2598;SDS011;1309;48.810;8.954;2023-01-29T04:40:03;10.87;;;5.43;;
2598;SDS011;1309;48.810;8.954;2023-01-29T04:42:40;8.17;;;3.50;;
2598;SDS011;1309;48.810;8.954;2023-01-29T04:45:12;6.07;;;4.40;;
2598;SDS011;1309;48.810;8.954;2023-01-29T04:47:48;5.40;;;3.10;;
2598;SDS011;1309;48.810;8.954;2023-01-29T04:50:30;4.30;;;3.00;;
2598;SDS011;1309;48.810;8.954;2023-01-29T04:53:06;5.90;;;3.33;;
2598;SDS011;1309;48.810;8.954;2023-01-29T04:55:41;8.87;;;3.70;;
2598;SDS011;1309;48.810;8.954;2023-01-29T04:58:13;4.83;;;3.90;;
2598;SDS011;1309;48.810;8.954;2023-01-29T05:00:45;8.60;;;4.07;;
2598;SDS011;1309;48.810;8.954;2023-01-29T05:03:15;7.30;;;4.60;;
2598;SDS011;1309;48.810;8.954;2023-01-29T05:05:46;6.93;;;3.20;;
2598;SDS011;1309;48.810;8.954;2023-01-29T05:08:16;5.93;;;4.00;;
2598;SDS011;1309;48.810;8.954;2023-01-29T05:10:47;5.87;;;4.17;;
2598;SDS011;1309;48.810;8.954;2023-01-29T05:13:16;7.30;;;4.30;;
2598;SDS011;1309;48.810;8.954;2023-01-29T05:15:47;6.70;;;3.93;;
2598;SDS011;1309;48.810;8.954;2023-01-29T05:18:17;5.50;;;3.60;;
2598;SDS011;1309;48.810;8.954;2023-01-29T05:20:49;8.03;;;5.00;;
2598;SDS011;1309;48.810;8.954;2023-01-29T05:23:18;5.13;;;3.60;;
2598;SDS011;1309;48.810;8.954;2023-01-29T05:25:47;6.67;;;3.93;;
2598;SDS011;1309;48.810;8.954;2023-01-29T05:28:20;6.17;;;3.77;;
2598;SDS011;1309;48.810;8.954;2023-01-29T05:30:47;7.13;;;5.37;;
2598;SDS011;1309;48.810;8.954;2023-01-29T05:33:17;7.43;;;4.43;;
2598;SDS011;1309;48.810;8.954;2023-01-29T05:35:49;8.73;;;4.57;;
2598;SDS011;1309;48.810;8.954;2023-01-29T05:38:25;7.57;;;4.60;;
2598;SDS011;1309;48.810;8.954;2023-01-29T05:40:59;7.40;;;4.53;;
2598;SDS011;1309;48.810;8.954;2023-01-29T05:43:28;11.33;;;5.47;;
2598;SDS011;1309;48.810;8.954;2023-01-29T05:45:59;8.70;;;4.80;;
2598;SDS011;1309;48.810;8.954;2023-01-29T05:48:27;9.90;;;4.53;;
2598;SDS011;1309;48.810;8.954;2023-01-29T05:51:00;5.93;;;4.37;;
2598;SDS011;1309;48.810;8.954;2023-01-29T05:53:30;11.37;;;5.37;;
2598;SDS011;1309;48.810;8.954;2023-01-29T05:56:06;6.97;;;4.60;;
2598;SDS011;1309;48.810;8.954;2023-01-29T05:58:37;10.43;;;5.40;;
2598;SDS011;1309;48.810;8.954;2023-01-29T06:01:09;10.07;;;5.20;;
2598;SDS011;1309;48.810;8.954;2023-01-29T06:03:41;8.20;;;5.03;;
2598;SDS011;1309;48.810;8.954;2023-01-29T06:06:12;6.43;;;4.03;;
2598;SDS011;1309;48.810;8.954;2023-01-29T06:08:41;9.00;;;5.27;;
2598;SDS011;1309;48.810;8.954;2023-01-29T06:11:11;8.03;;;4.90;;
2598;SDS011;1309;48.810;8.954;2023-01-29T06:13:39;9.90;;;6.13;;
2598;SDS011;1309;48.810;8.954;2023-01-29T06:16:11;5.90;;;4.00;;
2598;SDS011;1309;48.810;8.954;2023-01-29T06:18:42;8.50;;;4.70;;
2598;SDS011;1309;48.810;8.954;2023-01-29T06:21:12;7.30;;;4.73;;
2598;SDS011;1309;48.810;8.954;2023-01-29T06:23:40;9.73;;;4.80;;
2598;SDS011;1309;48.810;8.954;2023-01-29T06:26:09;8.73;;;4.67;;
2598;SDS011;1309;48.810;8.954;2023-01-29T06:28:38;11.00;;;5.40;;
2598;SDS011;1309;48.810;8.954;2023-01-29T06:31:09;12.73;;;4.80;;
2598;SDS011;1309;48.810;8.954;2023-01-29T06:33:57;8.17;;;5.00;;
2598;SDS011;1309;48.810;8.954;2023-01-29T06:36:30;8.10;;;4.83;;
2598;SDS011;1309;48.810;8.954;2023-01-29T06:38:58;6.93;;;4.73;;
2598;SDS011;1309;48.810;8.954;2023-01-29T06:41:33;9.00;;;4.93;;
2598;SDS011;1309;48.810;8.954;2023-01-29T06:44:01;8.37;;;4.30;;
2598;SDS011;1309;48.810;8.954;2023-01-29T06:46:29;11.80;;;5.57;;
2598;SDS011;1309;48.810;8.954;2023-01-29T06:49:00;5.80;;;4.20;;
2598;SDS011;1309;48.810;8.954;2023-01-29T06:51:32;8.33;;;4.17;;
2598;SDS011;1309;48.810;8.954;2023-01-29T06:54:00;7.70;;;4.90;;
2598;SDS011;1309;48.810;8.954;2023-01-29T06:56:34;8.40;;;5.30;;
2598;SDS011;1309;48.810;8.954;2023-01-29T06:59:03;8.37;;;4.70;;
2598;SDS011;1309;48.810;8.954;2023-01-29T07:01:34;7.90;;;4.73;;
2598;SDS011;1309;48.810;8.954;2023-01-29T07:04:09;9.80;;;5.13;;
2598;SDS011;1309;48.810;8.954;2023-01-29T07:06:39;8.40;;;4.87;;
2598;SDS011;1309;48.810;8.954;2023-01-29T07:09:06;9.70;;;5.00;;
2598;SDS011;1309;48.810;8.954;2023-01-29T07:11:34;12.20;;;5.70;;
2598;SDS011;1309;48.810;8.954;2023-01-29T07:14:05;8.17;;;4.80;;
2598;SDS011;1309;48.810;8.954;2023-01-29T07:16:34;7.57;;;5.20;;
2598;SDS011;1309;48.810;8.954;2023-01-29T07:19:04;9.33;;;5.80;;
2598;SDS011;1309;48.810;8.954;2023-01-29T07:21:35;8.90;;;4.77;;
2598;SDS011;1309;48.810;8.954;2023-01-29T07:24:08;8.40;;;5.57;;
2598;SDS011;1309;48.810;8.954;2023-01-29T07:26:36;7.77;;;5.60;;
2598;SDS011;1309;48.810;8.954;2023-01-29T07:29:07;9.17;;;4.77;;
2598;SDS011;1309;48.810;8.954;2023-01-29T07:31:38;11.93;;;5.03;;
2598;SDS011;1309;48.810;8.954;2023-01-29T07:34:06;6.30;;;4.50;;
2598;SDS011;1309;48.810;8.954;2023-01-29T07:36:34;9.53;;;5.47;;
2598;SDS011;1309;48.810;8.954;2023-01-29T07:39:07;10.30;;;5.83;;
2598;SDS011;1309;48.810;8.954;2023-01-29T07:41:39;8.93;;;5.43;;
2598;SDS011;1309;48.810;8.954;2023-01-29T07:44:09;10.63;;;5.43;;
2598;SDS011;1309;48.810;8.954;2023-01-29T07:46:40;11.93;;;5.13;;
2598;SDS011;1309;48.810;8.954;2023-01-29T07:49:07;8.20;;;4.63;;
2598;SDS011;1309;48.810;8.954;2023-01-29T07:51:35;7.57;;;4.40;;
2598;SDS011;1309;48.810;8.954;2023-01-29T07:54:03;8.73;;;4.57;;
2598;SDS011;1309;48.810;8.954;2023-01-29T07:56:33;7.20;;;5.20;;
2598;SDS011;1309;48.810;8.954;2023-01-29T07:59:05;8.40;;;5.70;;
2598;SDS011;1309;48.810;8.954;2023-01-29T08:01:34;7.60;;;5.63;;
2598;SDS011;1309;48.810;8.954;2023-01-29T08:04:06;7.50;;;4.67;;
2598;SDS011;1309;48.810;8.954;2023-01-29T08:06:33;8.97;;;5.23;;
2598;SDS011;1309;48.810;8.954;2023-01-29T08:09:03;10.30;;;4.90;;
2598;SDS011;1309;48.810;8.954;2023-01-29T08:11:35;10.70;;;5.13;;
2598;SDS011;1309;48.810;8.954;2023-01-29T08:14:05;6.80;;;4.67;;
2598;SDS011;1309;48.810;8.954;2023-01-29T08:16:34;9.53;;;4.60;;
2598;SDS011;1309;48.810;8.954;2023-01-29T08:19:02;11.93;;;5.60;;
2598;SDS011;1309;48.810;8.954;2023-01-29T08:21:31;8.37;;;4.50;;
2598;SDS011;1309;48.810;8.954;2023-01-29T08:24:03;8.53;;;5.50;;
2598;SDS011;1309;48.810;8.954;2023-01-29T08:26:37;9.23;;;5.20;;
2598;SDS011;1309;48.810;8.954;2023-01-29T08:29:05;9.10;;;6.27;;
2598;SDS011;1309;48.810;8.954;2023-01-29T08:31:34;11.80;;;5.83;;
2598;SDS011;1309;48.810;8.954;2023-01-29T08:34:02;8.83;;;4.10;;
2598;SDS011;1309;48.810;8.954;2023-01-29T08:36:32;10.07;;;4.47;;
2598;SDS011;1309;48.810;8.954;2023-01-29T08:39:00;9.63;;;5.00;;
2598;SDS011;1309;48.810;8.954;2023-01-29T08:41:30;10.67;;;5.20;;
2598;SDS011;1309;48.810;8.954;2023-01-29T08:44:03;12.40;;;7.00;;
2598;SDS011;1309;48.810;8.954;2023-01-29T08:46:32;8.30;;;5.20;;
2598;SDS011;1309;48.810;8.954;2023-01-29T08:49:02;6.80;;;4.80;;
2598;SDS011;1309;48.810;8.954;2023-01-29T08:51:31;11.47;;;6.63;;
2598;SDS011;1309;48.810;8.954;2023-01-29T08:53:59;7.90;;;5.03;;
2598;SDS011;1309;48.810;8.954;2023-01-29T08:56:34;8.10;;;4.80;;
2598;SDS011;1309;48.810;8.954;2023-01-29T08:59:03;14.73;;;7.30;;
2598;SDS011;1309;48.810;8.954;2023-01-29T09:01:34;13.27;;;6.40;;
2598;SDS011;1309;48.810;8.954;2023-01-29T09:04:07;8.80;;;5.93;;
2598;SDS011;1309;48.810;8.954;2023-01-29T09:06:37;9.97;;;6.30;;
2598;SDS011;1309;48.810;8.954;2023-01-29T09:09:11;11.80;;;6.90;;
2598;SDS011;1309;48.810;8.954;2023-01-29T09:11:39;11.00;;;6.50;;
2598;SDS011;1309;48.810;8.954;2023-01-29T09:14:09;11.20;;;6.37;;
2598;SDS011;1309;48.810;8.954;2023-01-29T09:16:38;12.73;;;7.93;;
2598;SDS011;1309;48.810;8.954;2023-01-29T09:19:06;13.57;;;6.53;;
2598;SDS011;1309;48.810;8.954;2023-01-29T09:21:34;10.03;;;6.87;;
2598;SDS011;1309;48.810;8.954;2023-01-29T09:24:04;9.70;;;6.30;;
2598;SDS011;1309;48.810;8.954;2023-01-29T09:26:36;10.53;;;6.80;;
2598;SDS011;1309;48.810;8.954;2023-01-29T09:29:05;11.50;;;7.37;;
2598;SDS011;1309;48.810;8.954;2023-01-29T09:31:37;11.23;;;5.63;;
2598;SDS011;1309;48.810;8.954;2023-01-29T09:34:05;10.60;;;6.13;;
2598;SDS011;1309;48.810;8.954;2023-01-29T09:36:44;17.63;;;9.77;;
2598;SDS011;1309;48.810;8.954;2023-01-29T09:39:12;12.33;;;7.60;;
2598;SDS011;1309;48.810;8.954;2023-01-29T09:41:48;12.77;;;6.87;;
2598;SDS011;1309;48.810;8.954;2023-01-29T09:44:23;11.70;;;7.30;;
2598;SDS011;1309;48.810;8.954;2023-01-29T09:46:56;16.90;;;7.17;;
2598;SDS011;1309;48.810;8.954;2023-01-29T09:49:30;10.60;;;6.60;;
2598;SDS011;1309;48.810;8.954;2023-01-29T09:52:01;13.70;;;7.17;;
2598;SDS011;1309;48.810;8.954;2023-01-29T09:54:37;18.00;;;9.90;;
2598;SDS011;1309;48.810;8.954;2023-01-29T09:57:21;10.20;;;6.33;;
2598;SDS011;1309;48.810;8.954;2023-01-29T09:59:51;12.00;;;7.77;;
2598;SDS011;1309;48.810;8.954;2023-01-29T10:02:32;14.87;;;8.50;;
2598;SDS011;1309;48.810;8.954;2023-01-29T10:05:19;11.97;;;7.93;;
2598;SDS011;1309;48.810;8.954;2023-01-29T10:08:01;12.97;;;7.70;;
2598;SDS011;1309;48.810;8.954;2023-01-29T10:10:42;13.60;;;8.10;;
2598;SDS011;1309;48.810;8.954;2023-01-29T10:13:19;12.63;;;7.70;;
2598;SDS011;1309;48.810;8.954;2023-01-29T10:15:56;14.60;;;8.07;;
2598;SDS011;1309;48.810;8.954;2023-01-29T10:18:40;15.47;;;8.53;;
2598;SDS011;1309;48.810;8.954;2023-01-29T10:21:18;13.63;;;7.90;;
2598;SDS011;1309;48.810;8.954;2023-01-29T10:23:57;12.60;;;7.40;;
2598;SDS011;1309;48.810;8.954;2023-01-29T10:26:31;13.73;;;7.50;;
2598;SDS011;1309;48.810;8.954;2023-01-29T10:29:01;15.07;;;6.90;;
2598;SDS011;1309;48.810;8.954;2023-01-29T10:31:39;14.53;;;7.97;;
2598;SDS011;1309;48.810;8.954;2023-01-29T10:34:11;10.87;;;7.67;;
2598;SDS011;1309;48.810;8.954;2023-01-29T10:36:42;10.10;;;7.60;;
2598;SDS011;1309;48.810;8.954;2023-01-29T10:39:14;12.00;;;6.90;;
2598;SDS011;1309;48.810;8.954;2023-01-29T10:41:47;13.37;;;7.80;;
2598;SDS011;1309;48.810;8.954;2023-01-29T10:44:29;12.50;;;8.40;;
2598;SDS011;1309;48.810;8.954;2023-01-29T10:50:12;14.93;;;8.47;;
2598;SDS011;1309;48.810;8.954;2023-01-29T10:52:51;13.73;;;8.87;;
2598;SDS011;1309;48.810;8.954;2023-01-29T10:55:31;16.67;;;8.70;;
2598;SDS011;1309;48.810;8.954;2023-01-29T10:58:06;11.90;;;6.83;;
2598;SDS011;1309;48.810;8.954;2023-01-29T11:00:49;11.47;;;6.87;;
2598;SDS011;1309;48.810;8.954;2023-01-29T11:03:25;12.97;;;8.07;;
2598;SDS011;1309;48.810;8.954;2023-01-29T11:05:58;13.60;;;6.60;;
2598;SDS011;1309;48.810;8.954;2023-01-29T11:08:33;10.70;;;7.53;;
2598;SDS011;1309;48.810;8.954;2023-01-29T11:11:08;11.00;;;7.77;;
2598;SDS011;1309;48.810;8.954;2023-01-29T11:13:41;13.50;;;8.30;;
2598;SDS011;1309;48.810;8.954;2023-01-29T11:16:10;11.63;;;8.30;;
2598;SDS011;1309;48.810;8.954;2023-01-29T11:18:50;11.60;;;8.00;;
2598;SDS011;1309;48.810;8.954;2023-01-29T11:21:25;17.10;;;9.00;;
2598;SDS011;1309;48.810;8.954;2023-01-29T11:24:03;11.63;;;7.50;;
2598;SDS011;1309;48.810;8.954;2023-01-29T11:26:33;15.37;;;8.13;;
2598;SDS011;1309;48.810;8.954;2023-01-29T11:29:04;15.80;;;10.03;;
2598;SDS011;1309;48.810;8.954;2023-01-29T11:31:36;12.50;;;7.57;;
2598;SDS011;1309;48.810;8.954;2023-01-29T11:34:12;13.83;;;8.83;;
2598;SDS011;1309;48.810;8.954;2023-01-29T11:36:50;14.57;;;8.07;;
2598;SDS011;1309;48.810;8.954;2023-01-29T11:39:27;13.30;;;8.37;;
2598;SDS011;1309;48.810;8.954;2023-01-29T11:41:56;14.67;;;7.20;;
2598;SDS011;1309;48.810;8.954;2023-01-29T11:44:29;13.37;;;8.00;;
2598;SDS011;1309;48.810;8.954;2023-01-29T11:47:11;12.60;;;7.53;;
2598;SDS011;1309;48.810;8.954;2023-01-29T11:49:52;11.40;;;6.70;;
2598;SDS011;1309;48.810;8.954;2023-01-29T11:52:35;13.13;;;6.83;;
2598;SDS011;1309;48.810;8.954;2023-01-29T11:55:12;15.40;;;8.30;;
2598;SDS011;1309;48.810;8.954;2023-01-29T11:57:45;12.10;;;7.13;;
2598;SDS011;1309;48.810;8.954;2023-01-29T12:00:16;14.10;;;7.80;;
2598;SDS011;1309;48.810;8.954;2023-01-29T12:02:49;15.93;;;8.83;;
2598;SDS011;1309;48.810;8.954;2023-01-29T12:05:21;14.87;;;8.73;;
2598;SDS011;1309;48.810;8.954;2023-01-29T12:07:52;15.07;;;7.60;;
2598;SDS011;1309;48.810;8.954;2023-01-29T12:10:28;9.73;;;6.40;;
2598;SDS011;1309;48.810;8.954;2023-01-29T12:13:05;12.00;;;7.40;;
2598;SDS011;1309;48.810;8.954;2023-01-29T12:15:45;12.00;;;7.90;;
2598;SDS011;1309;48.810;8.954;2023-01-29T12:18:15;12.90;;;8.33;;
2598;SDS011;1309;48.810;8.954;2023-01-29T12:20:53;12.97;;;7.93;;
2598;SDS011;1309;48.810;8.954;2023-01-29T12:23:26;10.73;;;7.90;;
2598;SDS011;1309;48.810;8.954;2023-01-29T12:26:06;16.67;;;9.13;;
2598;SDS011;1309;48.810;8.954;2023-01-29T12:28:43;12.10;;;8.47;;
2598;SDS011;1309;48.810;8.954;2023-01-29T12:31:25;14.70;;;7.80;;
2598;SDS011;1309;48.810;8.954;2023-01-29T12:34:03;14.70;;;8.97;;
2598;SDS011;1309;48.810;8.954;2023-01-29T12:36:43;14.33;;;8.60;;
2598;SDS011;1309;48.810;8.954;2023-01-29T12:39:19;11.90;;;7.40;;
2598;SDS011;1309;48.810;8.954;2023-01-29T12:41:52;11.90;;;7.37;;
2598;SDS011;1309;48.810;8.954;2023-01-29T12:44:27;12.20;;;7.00;;
2598;SDS011;1309;48.810;8.954;2023-01-29T12:46:59;17.60;;;9.07;;
2598;SDS011;1309;48.810;8.954;2023-01-29T12:49:29;14.00;;;8.90;;
2598;SDS011;1309;48.810;8.954;2023-01-29T12:52:00;12.67;;;7.73;;
2598;SDS011;1309;48.810;8.954;2023-01-29T12:54:35;13.50;;;7.90;;
2598;SDS011;1309;48.810;8.954;2023-01-29T12:57:07;12.53;;;8.00;;
2598;SDS011;1309;48.810;8.954;2023-01-29T12:59:38;17.90;;;9.37;;
2598;SDS011;1309;48.810;8.954;2023-01-29T13:02:16;17.17;;;9.10;;
2598;SDS011;1309;48.810;8.954;2023-01-29T13:04:49;12.33;;;7.37;;
2598;SDS011;1309;48.810;8.954;2023-01-29T13:07:22;11.70;;;7.97;;
2598;SDS011;1309;48.810;8.954;2023-01-29T13:09:56;12.00;;;8.20;;
2598;SDS011;1309;48.810;8.954;2023-01-29T13:12:28;18.77;;;9.50;;
2598;SDS011;1309;48.810;8.954;2023-01-29T13:14:58;12.23;;;8.30;;
2598;SDS011;1309;48.810;8.954;2023-01-29T13:17:29;13.67;;;8.50;;
2598;SDS011;1309;48.810;8.954;2023-01-29T13:20:03;14.30;;;8.07;;
2598;SDS011;1309;48.810;8.954;2023-01-29T13:22:33;13.10;;;8.40;;
2598;SDS011;1309;48.810;8.954;2023-01-29T13:25:05;14.67;;;8.67;;
2598;SDS011;1309;48.810;8.954;2023-01-29T13:27:36;12.80;;;8.30;;
2598;SDS011;1309;48.810;8.954;2023-01-29T13:30:06;13.07;;;8.80;;
2598;SDS011;1309;48.810;8.954;2023-01-29T13:32:36;15.53;;;10.13;;
2598;SDS011;1309;48.810;8.954;2023-01-29T13:35:05;19.20;;;9.07;;
2598;SDS011;1309;48.810;8.954;2023-01-29T13:37:40;15.27;;;8.90;;
2598;SDS011;1309;48.810;8.954;2023-01-29T13:40:19;13.90;;;9.00;;
2598;SDS011;1309;48.810;8.954;2023-01-29T13:42:49;17.60;;;9.63;;
2598;SDS011;1309;48.810;8.954;2023-01-29T13:45:20;15.27;;;8.97;;
2598;SDS011;1309;48.810;8.954;2023-01-29T13:47:51;14.03;;;8.27;;
2598;SDS011;1309;48.810;8.954;2023-01-29T13:50:20;10.80;;;8.27;;
2598;SDS011;1309;48.810;8.954;2023-01-29T13:52:53;14.20;;;8.17;;
2598;SDS011;1309;48.810;8.954;2023-01-29T13:55:28;16.73;;;8.80;;
2598;SDS011;1309;48.810;8.954;2023-01-29T13:57:58;14.90;;;7.53;;
2598;SDS011;1309;48.810;8.954;2023-01-29T14:06:47;14.47;;;7.47;;
2598;SDS011;1309;48.810;8.954;2023-01-29T14:15:30;13.90;;;10.60;;
2598;SDS011;1309;48.810;8.954;2023-01-29T14:18:02;14.83;;;8.30;;
2598;SDS011;1309;48.810;8.954;2023-01-29T14:20:33;14.57;;;9.80;;
2598;SDS011;1309;48.810;8.954;2023-01-29T14:23:19;13.47;;;7.50;;
2598;SDS011;1309;48.810;8.954;2023-01-29T14:25:52;19.93;;;9.73;;
2598;SDS011;1309;48.810;8.954;2023-01-29T14:28:21;13.77;;;8.27;;
2598;SDS011;1309;48.810;8.954;2023-01-29T14:30:50;14.40;;;8.13;;
2598;SDS011;1309;48.810;8.954;2023-01-29T14:36:10;12.83;;;7.57;;
2598;SDS011;1309;48.810;8.954;2023-01-29T14:38:45;18.00;;;8.30;;
2598;SDS011;1309;48.810;8.954;2023-01-29T14:41:21;16.17;;;8.00;;
2598;SDS011;1309;48.810;8.954;2023-01-29T14:46:57;18.40;;;8.80;;
2598;SDS011;1309;48.810;8.954;2023-01-29T14:52:17;13.40;;;9.40;;
2598;SDS011;1309;48.810;8.954;2023-01-29T14:54:51;11.70;;;7.50;;
2598;SDS011;1309;48.810;8.954;2023-01-29T14:57:20;14.23;;;9.63;;
2598;SDS011;1309;48.810;8.954;2023-01-29T14:59:53;14.13;;;7.97;;
2598;SDS011;1309;48.810;8.954;2023-01-29T15:02:25;13.87;;;8.50;;
2598;SDS011;1309;48.810;8.954;2023-01-29T15:05:06;13.37;;;8.93;;
2598;SDS011;1309;48.810;8.954;2023-01-29T15:07:38;16.00;;;10.43;;
2598;SDS011;1309;48.810;8.954;2023-01-29T15:10:13;14.30;;;9.70;;
2598;SDS011;1309;48.810;8.954;2023-01-29T15:12:49;14.30;;;8.37;;
2598;SDS011;1309;48.810;8.954;2023-01-29T15:15:24;13.73;;;8.63;;
2598;SDS011;1309;48.810;8.954;2023-01-29T15:18:02;12.60;;;6.90;;
2598;SDS011;1309;48.810;8.954;2023-01-29T15:20:40;12.60;;;7.33;;
2598;SDS011;1309;48.810;8.954;2023-01-29T15:25:53;12.53;;;8.30;;
2598;SDS011;1309;48.810;8.954;2023-01-29T15:28:25;14.23;;;8.80;;
2598;SDS011;1309;48.810;8.954;2023-01-29T15:30:54;13.73;;;9.20;;
2598;SDS011;1309;48.810;8.954;2023-01-29T15:33:26;17.03;;;8.23;;
2598;SDS011;1309;48.810;8.954;2023-01-29T15:35:56;12.70;;;7.60;;
2598;SDS011;1309;48.810;8.954;2023-01-29T15:38:34;14.90;;;7.97;;
2598;SDS011;1309;48.810;8.954;2023-01-29T15:41:03;12.47;;;7.27;;
2598;SDS011;1309;48.810;8.954;2023-01-29T15:43:45;11.90;;;8.43;;
2598;SDS011;1309;48.810;8.954;2023-01-29T15:46:18;15.73;;;7.70;;
2598;SDS011;1309;48.810;8.954;2023-01-29T15:48:49;18.17;;;9.40;;
2598;SDS011;1309;48.810;8.954;2023-01-29T15:51:18;17.30;;;7.83;;
2598;SDS011;1309;48.810;8.954;2023-01-29T15:53:48;15.40;;;8.90;;
2598;SDS011;1309;48.810;8.954;2023-01-29T15:56:20;13.90;;;8.00;;
2598;SDS011;1309;48.810;8.954;2023-01-29T15:58:54;13.63;;;7.20;;
2598;SDS011;1309;48.810;8.954;2023-01-29T16:01:24;15.70;;;8.73;;
2598;SDS011;1309;48.810;8.954;2023-01-29T16:03:58;13.37;;;7.73;;
2598;SDS011;1309;48.810;8.954;2023-01-29T16:06:32;13.77;;;7.97;;
2598;SDS011;1309;48.810;8.954;2023-01-29T16:09:10;11.83;;;7.37;;
2598;SDS011;1309;48.810;8.954;2023-01-29T16:11:43;15.63;;;8.67;;
2598;SDS011;1309;48.810;8.954;2023-01-29T16:14:12;13.50;;;8.47;;